Gibunker 100 — ZDIH6 — position and weather

sailwx.info

Track history (hours):
 
Tides and Currents Weather Stations Pressure Air Temp Water Temp Dewpoint Dewpoint Depression Visibility Wind Speed Wind Dir Waves Ship Positions

Gibunker 100

Last reported at 2017-Dec-16 02:10 UTC. Time now 2017-Dec-16 13:09 UTC.
Position N 36°08' W 005°26'.

Length 102 m; draft 5 m.

Type: Ship (hazmat cat C). MMSI: 236111477.

Date/timePositionNaut miles runAvg speedWind from/ knotsBaromVisibWave heightAir tempDewpointWater temp
2017-Dec-16 02:10N 36°08' W 005°26'0 0.0
2017-Dec-16 01:05N 36°08' W 005°26'1 1.5
2017-Dec-16 00:20N 36°08' W 005°25'2 0.5
2017-Dec-15 20:47N 36°06' W 005°25'  
2017-Dec-13 04:15N 36°08' W 005°26'0 2.0
2017-Dec-13 04:00N 36°08' W 005°25'3 6.0
2017-Dec-13 03:30N 36°05' W 005°25'0 0.3
2017-Dec-13 02:54N 36°05' W 005°25'0 0.0
2017-Dec-13 02:30N 36°05' W 005°25'0 0.0
2017-Dec-13 01:21N 36°05' W 005°25'0 0.1
2017-Dec-13 00:39N 36°05' W 005°25'0 0.0
2017-Dec-12 20:25N 36°05' W 005°25'5 0.3
2017-Dec-12 02:03N 36°10' W 005°23'0 0.2
2017-Dec-12 01:57N 36°10' W 005°23'0 0.0
2017-Dec-12 01:23N 36°10' W 005°23'0 0.0
2017-Dec-12 00:58N 36°10' W 005°23'0 0.0
2017-Dec-12 00:29N 36°10' W 005°23'0 0.0
2017-Dec-11 23:58N 36°10' W 005°23'0 0.0
2017-Dec-11 22:49N 36°10' W 005°23'0 0.0
2017-Dec-11 21:56N 36°10' W 005°23'0 0.0
2017-Dec-11 21:26N 36°10' W 005°23'0 0.1
2017-Dec-11 20:49N 36°10' W 005°23'0 0.1
2017-Dec-11 20:19N 36°10' W 005°23'0 0.0
2017-Dec-11 18:59N 36°10' W 005°23'1 0.9
2017-Dec-11 18:26N 36°10' W 005°23'0 0.1
2017-Dec-11 17:25N 36°10' W 005°23'  
Track history (hours):
 
Tides and Currents Weather Stations Pressure Air Temp Water Temp Dewpoint Dewpoint Depression Visibility Wind Speed Wind Dir Waves Ship Positions

Gibunker 100

Last reported at 2017-Dec-16 02:10 UTC. Time now 2017-Dec-16 13:09 UTC.
Position N 36°08' W 005°26'.

Length 102 m; draft 5 m.

Type: Ship (hazmat cat C). MMSI: 236111477.

Date/timePositionNaut miles runAvg speedWind from/ knotsBaromVisibWave heightAir tempDewpointWater temp
2017-Dec-16 02:10N 36°08' W 005°26'0 0.0
2017-Dec-16 01:05N 36°08' W 005°26'1 1.5
2017-Dec-16 00:20N 36°08' W 005°25'2 0.5
2017-Dec-15 20:47N 36°06' W 005°25'  
2017-Dec-13 04:15N 36°08' W 005°26'0 2.0
2017-Dec-13 04:00N 36°08' W 005°25'3 6.0
2017-Dec-13 03:30N 36°05' W 005°25'0 0.3
2017-Dec-13 02:54N 36°05' W 005°25'0 0.0
2017-Dec-13 02:30N 36°05' W 005°25'0 0.0
2017-Dec-13 01:21N 36°05' W 005°25'0 0.1
2017-Dec-13 00:39N 36°05' W 005°25'0 0.0
2017-Dec-12 20:25N 36°05' W 005°25'5 0.3
2017-Dec-12 02:03N 36°10' W 005°23'0 0.2
2017-Dec-12 01:57N 36°10' W 005°23'0 0.0
2017-Dec-12 01:23N 36°10' W 005°23'0 0.0
2017-Dec-12 00:58N 36°10' W 005°23'0 0.0
2017-Dec-12 00:29N 36°10' W 005°23'0 0.0
2017-Dec-11 23:58N 36°10' W 005°23'0 0.0
2017-Dec-11 22:49N 36°10' W 005°23'0 0.0
2017-Dec-11 21:56N 36°10' W 005°23'0 0.0
2017-Dec-11 21:26N 36°10' W 005°23'0 0.1
2017-Dec-11 20:49N 36°10' W 005°23'0 0.1
2017-Dec-11 20:19N 36°10' W 005°23'0 0.0
2017-Dec-11 18:59N 36°10' W 005°23'1 0.9
2017-Dec-11 18:26N 36°10' W 005°23'0 0.1
2017-Dec-11 17:25N 36°10' W 005°23'  

Dump ship's entire track history